Date,TemperatureHighF,TemperatureAvgF,TemperatureLowF,DewpointHighF,DewpointAvgF,DewpointLowF,HumidityHigh,HumidityAvg,HumidityLow,PressureMaxIn,PressureMinIn,WindSpeedMaxMPH,WindSpeedAvgMPH,GustSpeedMaxMPH,PrecipitationSumIn
2013-1-1,52,48,43,51,44,34,98,89,61,29.94,29.77,5,2,0,0.32
2013-1-2,51,46,40,51,45,40,98,98,98,30.03,29.74,7,2,0,0.33
2013-1-3,48,41,33,45,40,33,98,96,80,30.10,29.98,3,1,0,0.00
2013-1-4,51,39,29,33,30,26,98,73,43,30.15,30.03,6,2,0,0.00
2013-1-5,51,38,28,34,30,26,98,73,49,30.23,30.11,5,1,0,0.00
2013-1-6,50,43,37,47,41,35,98,94,78,30.08,29.90,3,1,0,0.01
2013-1-7,53,40,32,39,36,32,98,87,57,30.27,30.02,6,1,0,0.00
2013-1-8,59,44,32,48,41,31,98,90,61,30.31,30.21,3,0,0,0.00
2013-1-9,68,52,39,59,49,38,98,92,65,30.30,30.19,4,0,0,0.00
2013-1-10,65,55,49,55,51,45,98,87,60,30.38,30.26,5,1,0,0.00
2013-1-11,55,49,42,54,47,39,98,93,70,30.28,29.99,4,1,0,0.38
2013-1-12,72,59,51,72,58,50,98,98,98,30.02,29.93,4,0,0,0.00
2013-1-13,76,63,54,72,62,53,98,96,77,29.99,29.88,6,1,0,0.00
2013-1-14,72,65,58,72,64,58,98,98,98,29.99,29.92,5,1,0,0.00
2013-1-15,64,48,46,64,48,46,98,98,98,30.07,29.89,9,3,0,0.01
2013-1-16,52,48,46,52,48,45,98,98,98,29.91,29.81,6,1,0,0.21
2013-1-17,53,48,34,52,47,34,98,98,98,29.99,29.71,11,3,0,1.27
2013-1-18,47,37,29,41,33,28,98,86,54,30.37,29.98,8,2,0,0.28
2013-1-19,55,39,26,41,33,26,98,81,46,30.35,30.00,5,1,0,0.00
2013-1-20,64,50,40,45,40,33,98,71,42,29.98,29.82,6,2,0,0.00
2013-1-21,60,47,34,38,34,24,98,66,42,29.92,29.70,5,2,0,0.00
2013-1-22,40,34,26,24,10,-55,55,40,1,30.12,29.79,8,3,0,0.00
2013-1-23,41,29,18,22,14,5,86,54,33,30.21,29.89,8,1,0,0.00
2013-1-24,38,32,24,32,19,8,98,62,31,30.35,29.80,11,3,0,0.00
2013-1-25,28,25,20,27,17,6,98,75,46,30.38,29.94,4,1,0,0.06
2013-1-26,43,32,27,39,30,26,98,96,77,30.24,29.92,5,1,0,0.35
2013-1-27,43,33,24,35,30,24,98,92,68,30.43,30.23,6,1,0,0.01
2013-1-28,52,44,33,52,42,32,98,96,80,30.35,30.07,3,1,0,0.01
2013-1-29,73,58,47,69,57,47,98,95,75,30.08,29.91,8,2,0,0.00
2013-1-30,72,67,58,71,66,58,98,98,98,29.91,29.22,11,4,0,0.30
2013-1-31,62,46,34,62,36,26,98,70,42,29.85,29.30,14,4,0,0.21